Time;durP1;ratioP1;P1;durP2;ratioP2;P2;SDS_P1;SDS_P2;PMS_P1;PMS_P2;Temp;Humidity;BMP_temperature;BMP_pressure;BME280_temperature;BME280_humidity;BME280_pressure;Samples;Min_cycle;Max_cycle;Signal;HPM_P1;HPM_P2
2022/04/26 03:38:08;;;;;;;1.63;1.38;;;19.00;48.20;;;;;;5063553;28;44350;-61
2022/04/26 03:40:35;;;;;;;2.05;1.50;;;19.00;48.20;;;;;;5067893;28;43481;-61
2022/04/26 03:43:03;;;;;;;1.83;1.52;;;19.00;48.10;;;;;;5076910;28;43521;-62
2022/04/26 03:45:30;;;;;;;1.90;1.73;;;19.00;48.10;;;;;;5055599;28;45107;-60
2022/04/26 03:47:57;;;;;;;1.83;1.70;;;18.90;48.10;;;;;;5073457;28;43955;-62
2022/04/26 03:50:25;;;;;;;1.80;1.50;;;18.90;48.10;;;;;;5074624;28;43446;-61
2022/04/26 03:52:53;;;;;;;2.83;1.60;;;18.90;48.10;;;;;;5079692;27;43637;-61
2022/04/26 03:55:21;;;;;;;2.50;1.42;;;18.90;48.00;;;;;;5076589;28;44816;-61
2022/04/26 03:57:48;;;;;;;2.58;1.60;;;18.90;48.10;;;;;;5062917;28;43420;-61
2022/04/26 04:00:16;;;;;;;1.63;1.52;;;18.90;48.10;;;;;;5074818;28;43461;-61
2022/04/26 04:02:45;;;;;;;2.38;1.60;;;18.90;48.20;;;;;;5072172;28;43568;-60
2022/04/26 04:05:13;;;;;;;1.77;1.45;;;18.90;48.10;;;;;;5076268;28;44368;-62
2022/04/26 04:07:40;;;;;;;1.48;1.38;;;18.80;48.10;;;;;;5071866;27;43533;-61
2022/04/26 04:10:08;;;;;;;2.97;1.58;;;18.80;48.10;;;;;;5066008;28;43402;-62
2022/04/26 04:12:36;;;;;;;1.70;1.60;;;18.80;48.10;;;;;;5075623;28;43643;-62
2022/04/26 04:15:03;;;;;;;2.22;1.48;;;18.80;48.00;;;;;;5091291;27;44140;-61
2022/04/26 04:17:30;;;;;;;1.58;1.48;;;18.80;48.00;;;;;;5068349;28;43518;-61
2022/04/26 04:19:58;;;;;;;1.65;1.50;;;18.80;48.00;;;;;;5072263;28;43479;-62
2022/04/26 04:22:25;;;;;;;2.38;1.50;;;18.80;48.00;;;;;;5077847;28;43602;-61
2022/04/26 04:24:52;;;;;;;2.30;1.80;;;18.80;48.10;;;;;;5089744;27;44056;-61
2022/04/26 04:27:20;;;;;;;2.30;1.60;;;18.80;48.10;;;;;;5072622;27;44357;-62
2022/04/26 04:29:47;;;;;;;1.98;1.77;;;18.80;48.10;;;;;;5081370;27;43447;-62
2022/04/26 04:32:14;;;;;;;1.95;1.52;;;18.80;48.00;;;;;;5076519;28;44210;-61
2022/04/26 04:34:41;;;;;;;2.50;1.70;;;18.80;48.00;;;;;;5073913;28;44052;-60
2022/04/26 04:37:09;;;;;;;2.83;1.63;;;18.80;48.00;;;;;;5068169;28;43508;-61
2022/04/26 04:39:37;;;;;;;1.77;1.50;;;18.80;48.10;;;;;;5078647;28;43483;-61
2022/04/26 04:42:04;;;;;;;2.25;1.60;;;18.80;48.10;;;;;;5073537;28;43505;-61
2022/04/26 04:44:32;;;;;;;2.20;1.50;;;18.70;48.10;;;;;;5072321;28;44880;-61
2022/04/26 04:47:00;;;;;;;1.90;1.60;;;18.70;48.10;;;;;;5069229;27;43489;-62
2022/04/26 04:49:27;;;;;;;1.60;1.50;;;18.70;48.20;;;;;;5080441;28;43392;-61
2022/04/26 04:51:55;;;;;;;1.77;1.50;;;18.70;48.10;;;;;;5068533;28;43592;-61
2022/04/26 04:54:22;;;;;;;1.88;1.50;;;18.70;48.10;;;;;;5071534;28;44881;-61
2022/04/26 04:56:50;;;;;;;1.60;1.50;;;18.70;48.00;;;;;;5055857;28;43498;-61
2022/04/26 04:59:21;;;;;;;2.80;1.60;;;18.70;48.00;;;;;;5079968;27;43425;-61
2022/04/26 05:01:49;;;;;;;2.38;1.80;;;18.70;48.00;;;;;;5070844;28;43458;-61
2022/04/26 05:04:16;;;;;;;1.50;1.35;;;18.70;48.00;;;;;;5064663;28;44356;-61
2022/04/26 05:06:43;;;;;;;1.77;1.65;;;18.80;48.00;;;;;;5081758;28;43492;-61
2022/04/26 05:09:10;;;;;;;1.73;1.50;;;18.80;48.00;;;;;;5075867;28;43501;-62
2022/04/26 05:11:38;;;;;;;1.77;1.50;;;18.70;48.00;;;;;;5070828;28;43541;-61
2022/04/26 05:14:06;;;;;;;2.38;1.67;;;18.70;48.10;;;;;;5067871;28;43894;-61
2022/04/26 05:16:33;;;;;;;2.78;1.58;;;18.70;48.20;;;;;;5079248;28;43911;-61
2022/04/26 05:19:00;;;;;;;2.90;1.60;;;18.60;48.20;;;;;;5078619;28;43521;-61
2022/04/26 05:21:28;;;;;;;1.55;1.45;;;18.60;48.20;;;;;;5071341;28;43506;-62
2022/04/26 05:26:40;;;;;;;1.95;1.50;;;18.60;48.30;;;;;;5082838;27;43470;-61
2022/04/26 05:29:08;;;;;;;1.90;1.50;;;18.60;48.30;;;;;;5074204;27;43494;-61
2022/04/26 05:31:36;;;;;;;1.60;1.45;;;18.50;48.30;;;;;;5072658;28;43510;-61
2022/04/26 05:34:03;;;;;;;1.95;1.67;;;18.60;48.30;;;;;;5080699;28;44955;-61
2022/04/26 05:36:34;;;;;;;3.03;1.52;;;18.50;48.30;;;;;;5074438;28;43463;-61
2022/04/26 05:39:01;;;;;;;2.50;1.35;;;18.60;48.40;;;;;;5071242;28;43497;-61
2022/04/26 05:41:29;;;;;;;1.98;1.50;;;18.60;48.30;;;;;;5070347;28;43656;-61
2022/04/26 05:43:56;;;;;;;1.95;1.40;;;18.60;48.30;;;;;;5082089;28;43751;-62
2022/04/26 05:46:23;;;;;;;1.73;1.50;;;18.60;48.30;;;;;;5076843;27;43483;-61
2022/04/26 05:48:51;;;;;;;2.00;1.70;;;18.60;48.30;;;;;;5070410;28;43466;-62
2022/04/26 05:51:18;;;;;;;1.30;1.20;;;18.60;48.30;;;;;;5069013;28;43546;-61
2022/04/26 05:53:47;;;;;;;2.15;1.40;;;18.60;48.30;;;;;;5113947;27;45132;-61
2022/04/26 05:56:15;;;;;;;1.77;1.55;;;18.60;48.40;;;;;;5078638;28;44133;-61
2022/04/26 05:58:43;;;;;;;2.60;1.60;;;18.60;48.30;;;;;;5071871;28;43419;-61
2022/04/26 06:01:10;;;;;;;2.25;1.55;;;18.60;48.30;;;;;;5082304;28;44109;-62
2022/04/26 06:03:37;;;;;;;3.15;1.60;;;18.60;48.40;;;;;;5074658;28;44881;-61
2022/04/26 06:06:06;;;;;;;1.80;1.50;;;18.50;48.30;;;;;;5077390;28;43665;-60
2022/04/26 06:08:33;;;;;;;2.80;1.63;;;18.60;48.40;;;;;;5070891;28;43558;-61
2022/04/26 06:11:00;;;;;;;1.75;1.60;;;18.50;48.30;;;;;;5082739;28;43638;-60
2022/04/26 06:13:28;;;;;;;1.70;1.52;;;18.60;48.40;;;;;;5081599;28;45310;-63
2022/04/26 06:15:55;;;;;;;3.83;2.40;;;18.50;48.40;;;;;;5071491;27;43514;-61
2022/04/26 06:18:23;;;;;;;2.55;2.30;;;18.50;48.50;;;;;;5069756;28;43429;-62
2022/04/26 06:20:51;;;;;;;2.72;2.25;;;18.50;48.50;;;;;;5081496;27;43505;-61
2022/04/26 06:23:21;;;;;;;3.00;2.33;;;18.60;48.60;;;;;;5062347;28;43880;-61
2022/04/26 06:25:48;;;;;;;2.60;2.40;;;18.70;48.40;;;;;;5072947;27;43616;-62
2022/04/26 06:28:16;;;;;;;2.47;1.98;;;18.80;48.30;;;;;;5068155;28;43452;-60
2022/04/26 06:30:44;;;;;;;2.15;1.95;;;18.90;48.20;;;;;;5078632;28;43613;-62
2022/04/26 06:33:11;;;;;;;2.25;2.05;;;19.10;48.10;;;;;;5064522;28;43848;-61
2022/04/26 06:35:44;;;;;;;3.10;1.80;;;19.10;48.00;;;;;;5077896;27;43453;-60
2022/04/26 06:38:11;;;;;;;2.38;2.05;;;19.20;48.00;;;;;;5080196;28;43421;-62
2022/04/26 06:40:38;;;;;;;2.00;1.80;;;19.30;47.90;;;;;;5075543;28;43602;-62
2022/04/26 06:43:05;;;;;;;3.90;1.85;;;19.40;47.80;;;;;;5075617;27;44094;-62
2022/04/26 06:45:33;;;;;;;3.00;1.80;;;19.40;47.80;;;;;;5061919;28;45015;-62
2022/04/26 06:48:00;;;;;;;3.83;2.15;;;19.50;47.80;;;;;;5067982;27;43449;-63
2022/04/26 06:50:34;;;;;;;1.75;1.65;;;19.60;47.70;;;;;;5067363;28;43382;-62
2022/04/26 06:53:01;;;;;;;3.08;1.70;;;19.80;47.70;;;;;;5063385;28;45090;-62
2022/04/26 06:55:28;;;;;;;2.13;1.88;;;19.90;47.70;;;;;;5068561;28;43889;-63
2022/04/26 06:57:55;;;;;;;1.80;1.70;;;20.10;47.50;;;;;;5068275;28;43513;-62
2022/04/26 07:00:23;;;;;;;2.63;1.60;;;20.20;47.30;;;;;;5070990;27;43494;-62
2022/04/26 07:02:50;;;;;;;2.63;1.95;;;20.40;47.20;;;;;;5068802;28;44949;-62
2022/04/26 07:05:23;;;;;;;2.83;1.75;;;20.50;47.10;;;;;;5100485;27;44006;-62
2022/04/26 07:07:52;;;;;;;2.00;1.83;;;20.60;47.00;;;;;;5079934;27;43534;-63
2022/04/26 07:10:21;;;;;;;2.00;1.80;;;20.70;46.80;;;;;;5065883;28;43465;-63
2022/04/26 07:12:49;;;;;;;1.95;1.70;;;20.80;46.70;;;;;;5064839;28;44901;-62
2022/04/26 07:15:16;;;;;;;2.55;1.73;;;20.90;46.50;;;;;;5066447;28;45281;-62
2022/04/26 07:17:43;;;;;;;2.42;1.70;;;21.00;46.50;;;;;;5065415;28;43461;-62
2022/04/26 07:20:12;;;;;;;2.13;1.55;;;21.10;46.10;;;;;;5069154;28;43719;-62
2022/04/26 07:22:39;;;;;;;3.38;1.50;;;21.20;46.10;;;;;;5083097;28;45028;-62
2022/04/26 07:25:09;;;;;;;2.53;1.55;;;21.30;46.10;;;;;;5078179;28;43442;-61
2022/04/26 07:27:37;;;;;;;3.20;1.83;;;21.40;46.20;;;;;;5077295;28;43490;-62
2022/04/26 07:30:05;;;;;;;3.13;1.42;;;21.50;46.50;;;;;;5069035;27;43604;-61
2022/04/26 07:35:19;;;;;;;5.38;1.70;;;21.60;46.00;;;;;;5077113;27;43501;-61
2022/04/26 07:37:46;;;;;;;3.92;1.80;;;21.70;46.00;;;;;;5077166;27;43490;-61
2022/04/26 07:40:14;;;;;;;3.78;1.92;;;21.80;46.20;;;;;;5070117;28;43450;-61
2022/04/26 07:42:41;;;;;;;4.10;1.77;;;21.80;46.00;;;;;;5075606;28;43888;-63
2022/04/26 07:45:09;;;;;;;3.38;1.90;;;21.80;45.90;;;;;;5078467;27;43489;-62
2022/04/26 07:47:37;;;;;;;4.15;1.70;;;21.90;45.80;;;;;;5065240;27;43462;-61
2022/04/26 07:50:05;;;;;;;4.70;1.63;;;21.90;46.00;;;;;;5068021;28;43512;-61
2022/04/26 07:52:32;;;;;;;8.05;1.90;;;21.90;45.90;;;;;;5074759;28;44908;-62
2022/04/26 07:55:00;;;;;;;4.20;1.70;;;21.90;45.50;;;;;;5075617;28;43911;-61
2022/04/26 07:57:27;;;;;;;4.30;1.60;;;22.00;46.10;;;;;;5073447;28;43486;-62
2022/04/26 07:59:54;;;;;;;3.80;1.40;;;22.00;45.50;;;;;;5072684;28;43486;-62
2022/04/26 08:02:22;;;;;;;6.38;2.10;;;22.00;45.70;;;;;;5076414;28;44004;-62
2022/04/26 08:04:50;;;;;;;3.78;1.50;;;22.10;45.70;;;;;;5074192;28;44138;-61
2022/04/26 08:07:17;;;;;;;6.35;1.48;;;22.10;45.60;;;;;;5073710;28;43503;-62
2022/04/26 08:09:44;;;;;;;2.67;1.60;;;22.20;45.40;;;;;;5061021;28;43585;-62
2022/04/26 08:12:12;;;;;;;2.75;1.50;;;22.20;45.60;;;;;;5082062;27;44832;-62
2022/04/26 08:14:39;;;;;;;4.90;1.90;;;22.20;45.70;;;;;;5070757;28;43515;-62
2022/04/26 08:17:06;;;;;;;9.07;2.10;;;22.20;45.50;;;;;;5072181;27;43497;-61
2022/04/26 08:19:34;;;;;;;7.15;1.80;;;22.20;45.80;;;;;;5070754;28;43619;-62
2022/04/26 08:22:02;;;;;;;6.30;1.80;;;22.30;45.60;;;;;;5079764;27;44826;-62
2022/04/26 08:27:30;;;;;;;2.85;1.70;;;22.30;45.50;;;;;;5068751;28;43534;-62
2022/04/26 08:29:58;;;;;;;4.32;1.38;;;22.20;45.30;;;;;;5079393;28;43459;-61
2022/04/26 08:32:29;;;;;;;3.55;1.50;;;22.20;45.20;;;;;;5077581;28;44177;-62
2022/04/26 08:34:58;;;;;;;4.20;1.50;;;22.20;45.00;;;;;;5068593;28;43979;-62
2022/04/26 08:37:27;;;;;;;2.13;1.52;;;22.20;45.20;;;;;;5064703;28;43550;-62
2022/04/26 08:39:55;;;;;;;2.25;1.60;;;22.20;45.20;;;;;;5074732;28;43906;-61
2022/04/26 08:42:35;;;;;;;2.42;1.58;;;22.20;45.20;;;;;;5075871;28;44027;-63
2022/04/26 08:45:15;;;;;;;3.92;1.60;;;22.30;45.20;;;;;;5064342;28;44281;-61
2022/04/26 08:53:18;;;;;;;4.68;1.65;;;22.30;45.20;;;;;;5072756;28;43908;-62
2022/04/26 08:55:48;;;;;;;1.98;1.40;;;22.30;45.30;;;;;;5065861;28;43509;-61
2022/04/26 08:58:18;;;;;;;3.45;1.67;;;22.30;45.20;;;;;;5071595;28;43446;-61
2022/04/26 09:01:04;;;;;;;2.30;1.40;;;22.40;45.20;;;;;;5100740;27;43462;-61
2022/04/26 09:03:39;;;;;;;2.45;1.40;;;22.40;45.20;;;;;;5062713;28;44783;-62
2022/04/26 09:06:13;;;;;;;1.77;1.30;;;22.40;45.10;;;;;;5078722;28;43489;-62
2022/04/26 09:08:41;;;;;;;2.08;1.30;;;22.50;45.10;;;;;;5074283;28;43465;-62
2022/04/26 09:11:33;;;;;;;2.30;1.50;;;22.50;45.10;;;;;;5072458;28;43516;-61
2022/04/26 09:14:02;;;;;;;3.78;1.38;;;22.50;45.00;;;;;;5067409;28;44060;-61
2022/04/26 09:16:30;;;;;;;2.28;1.30;;;22.60;45.00;;;;;;5081783;27;44158;-62
2022/04/26 09:18:58;;;;;;;2.38;1.60;;;22.60;44.80;;;;;;5076075;28;43459;-62
2022/04/26 09:21:27;;;;;;;2.17;1.60;;;22.60;44.70;;;;;;5070099;28;43511;-61
2022/04/26 09:24:07;;;;;;;3.72;1.50;;;22.70;44.80;;;;;;5091058;27;45899;-62
2022/04/26 09:26:35;;;;;;;2.75;1.70;;;22.70;44.70;;;;;;5081086;27;43532;-62
2022/04/26 09:29:08;;;;;;;2.03;1.40;;;22.70;44.80;;;;;;5072809;28;43510;-62
2022/04/26 09:31:37;;;;;;;4.07;1.55;;;22.80;44.80;;;;;;5072884;28;43443;-62
2022/04/26 09:34:12;;;;;;;8.43;1.63;;;22.80;44.80;;;;;;5067839;28;44091;-61
2022/04/26 09:36:50;;;;;;;4.15;1.85;;;22.90;44.70;;;;;;5080061;28;43522;-62
2022/04/26 09:39:19;;;;;;;5.50;1.60;;;22.90;44.60;;;;;;5070139;28;43410;-60
2022/04/26 09:42:07;;;;;;;7.88;1.92;;;22.90;44.70;;;;;;5069820;28;43418;-60
2022/04/26 09:44:38;;;;;;;4.07;1.52;;;22.90;44.60;;;;;;5081637;28;43869;-61
2022/04/26 09:47:06;;;;;;;;;;;22.90;44.60;;;;;;5069639;28;43506;-61
2022/04/26 09:49:37;;;;;;;4.65;1.50;;;22.80;44.50;;;;;;5070429;27;43567;-59
2022/04/26 09:52:08;;;;;;;4.25;1.55;;;22.80;44.70;;;;;;5070803;28;43530;-60
2022/04/26 09:54:37;;;;;;;3.28;1.60;;;22.70;45.20;;;;;;5077536;28;44050;-61
2022/04/26 09:57:09;;;;;;;4.38;1.67;;;22.70;45.10;;;;;;5067811;28;43470;-60
2022/04/26 09:59:56;;;;;;;4.60;1.38;;;22.70;45.10;;;;;;5069185;28;43544;-60
2022/04/26 10:02:29;;;;;;;4.30;1.83;;;22.70;45.10;;;;;;5069368;28;43451;-60
2022/04/26 10:05:04;;;;;;;2.75;1.50;;;22.70;44.80;;;;;;5078313;28;45021;-61
2022/04/26 10:07:36;;;;;;;2.22;1.20;;;22.70;45.10;;;;;;5073804;27;43975;-61
2022/04/26 10:10:06;;;;;;;2.25;1.38;;;22.70;45.10;;;;;;5069732;28;43469;-61
2022/04/26 10:12:35;;;;;;;3.88;1.50;;;22.70;45.10;;;;;;5066244;28;44019;-61
2022/04/26 10:15:04;;;;;;;2.38;1.70;;;22.70;45.10;;;;;;5063668;28;43778;-61
2022/04/26 10:17:32;;;;;;;2.88;1.60;;;22.70;45.00;;;;;;5082918;27;44028;-61
2022/04/26 10:20:01;;;;;;;1.95;1.70;;;22.60;44.90;;;;;;5066637;28;43417;-61
2022/04/26 10:22:53;;;;;;;2.33;1.60;;;22.60;44.90;;;;;;5069172;28;43605;-60
2022/04/26 10:25:23;;;;;;;3.40;1.60;;;22.60;45.00;;;;;;5066779;28;44660;-61
2022/04/26 10:28:28;;;;;;;3.30;1.63;;;22.60;45.10;;;;;;5070061;28;43823;-61
2022/04/26 10:30:57;;;;;;;4.05;1.63;;;22.60;45.20;;;;;;5082556;27;44127;-61
2022/04/26 10:33:40;;;;;;;2.70;1.63;;;22.50;45.10;;;;;;5065826;28;43451;-62
2022/04/26 10:36:34;;;;;;;3.25;1.55;;;22.50;45.20;;;;;;5066638;28;44020;-62
2022/04/26 10:39:12;;;;;;;2.97;1.77;;;22.50;45.20;;;;;;5064969;28;43466;-61
2022/04/26 10:41:42;;;;;;;2.35;1.50;;;22.50;45.30;;;;;;5075267;28;43519;-62
2022/04/26 10:44:21;;;;;;;1.98;1.42;;;22.50;45.50;;;;;;5073529;28;43450;-62
2022/04/26 10:46:55;;;;;;;3.92;1.60;;;22.40;45.50;;;;;;5071737;28;43887;-61
2022/04/26 10:49:25;;;;;;;1.77;1.60;;;22.40;45.60;;;;;;5082800;27;44025;-61
2022/04/26 10:51:57;;;;;;;3.80;1.88;;;22.40;45.60;;;;;;5071438;28;43439;-59
2022/04/26 10:54:46;;;;;;;3.17;1.70;;;22.30;45.60;;;;;;5068996;28;43489;-61
2022/04/26 10:57:18;;;;;;;3.40;1.70;;;22.30;45.70;;;;;;5074347;28;43894;-60
2022/04/26 10:59:47;;;;;;;2.55;1.60;;;22.30;45.80;;;;;;5078301;28;44609;-61
2022/04/26 11:02:19;;;;;;;2.28;1.60;;;22.30;45.80;;;;;;5075349;27;43438;-60
2022/04/26 11:04:54;;;;;;;2.55;1.55;;;22.30;46.50;;;;;;5074379;28;43439;-59
2022/04/26 11:07:25;;;;;;;1.65;1.55;;;22.20;45.80;;;;;;5082418;28;43984;-62
2022/04/26 11:09:53;;;;;;;;;;;22.20;45.80;;;;;;5076916;28;43490;-60
2022/04/26 11:12:21;;;;;;;1.92;1.70;;;22.20;46.00;;;;;;5074326;27;43581;-61
2022/04/26 11:14:50;;;;;;;2.08;1.65;;;22.20;46.00;;;;;;5073925;28;43537;-61
2022/04/26 11:17:19;;;;;;;3.97;1.83;;;22.10;46.10;;;;;;5075544;27;44943;-60
2022/04/26 11:19:50;;;;;;;2.50;1.75;;;22.10;46.10;;;;;;5067226;28;43494;-61
2022/04/26 11:22:18;;;;;;;2.88;1.77;;;22.20;46.00;;;;;;5067555;28;43532;-60
2022/04/26 11:30:25;;;;;;;2.22;1.75;;;22.10;46.10;;;;;;5062436;28;43521;-60
2022/04/26 11:32:59;;;;;;;1.90;1.50;;;22.10;46.20;;;;;;5062424;28;43458;-61
2022/04/26 11:35:28;;;;;;;1.95;1.58;;;22.10;46.10;;;;;;5070226;28;43517;-61
2022/04/26 11:38:05;;;;;;;2.40;1.80;;;22.10;46.20;;;;;;5077471;28;43905;-61
2022/04/26 11:40:38;;;;;;;2.60;1.80;;;22.10;46.20;;;;;;5068685;27;43856;-61
2022/04/26 11:43:20;;;;;;;2.25;1.55;;;22.10;46.10;;;;;;5089120;27;43506;-63
2022/04/26 11:45:53;;;;;;;2.00;1.63;;;22.10;46.10;;;;;;5075694;28;43442;-61
2022/04/26 11:48:20;;;;;;;1.77;1.55;;;22.10;46.10;;;;;;5069666;28;44721;-60
2022/04/26 11:50:50;;;;;;;1.60;1.50;;;22.10;46.20;;;;;;5068281;28;43562;-61
2022/04/26 11:53:20;;;;;;;1.73;1.63;;;22.10;46.10;;;;;;5077667;28;43478;-61
2022/04/26 11:55:56;;;;;;;2.70;1.63;;;22.00;46.10;;;;;;5079152;27;43648;-61
2022/04/26 11:58:34;;;;;;;3.05;1.85;;;22.00;46.10;;;;;;5070366;28;45087;-61
2022/04/26 12:01:05;;;;;;;2.92;1.83;;;22.10;46.20;;;;;;5067665;28;43465;-61
2022/04/26 12:03:41;;;;;;;2.80;1.65;;;22.00;46.10;;;;;;5071019;28;43452;-60
2022/04/26 12:06:10;;;;;;;2.25;1.70;;;22.00;46.20;;;;;;5074683;28;43523;-61
2022/04/26 12:08:44;;;;;;;2.78;1.70;;;22.00;46.10;;;;;;5067188;28;44790;-61
2022/04/26 12:11:21;;;;;;;2.40;1.67;;;22.00;46.10;;;;;;5079456;27;44242;-61
2022/04/26 12:14:02;;;;;;;2.58;1.83;;;22.10;46.00;;;;;;5081382;27;43508;-61
2022/04/26 12:16:31;;;;;;;2.10;1.90;;;22.10;45.90;;;;;;5084627;27;43601;-60
2022/04/26 12:19:00;;;;;;;1.67;1.50;;;22.10;45.90;;;;;;5071068;27;44708;-60
2022/04/26 12:21:28;;;;;;;1.95;1.45;;;22.10;46.10;;;;;;5083022;27;43410;-60
2022/04/26 12:24:16;;;;;;;3.75;1.75;;;22.10;46.10;;;;;;5077030;28;43497;-61
2022/04/26 12:26:57;;;;;;;2.20;1.70;;;22.10;46.20;;;;;;5072787;28;43530;-62
2022/04/26 12:29:35;;;;;;;3.05;1.70;;;22.00;46.20;;;;;;5061712;28;44895;-60
2022/04/26 12:32:12;;;;;;;1.60;1.50;;;22.00;46.30;;;;;;5080150;27;43463;-61
2022/04/26 12:34:54;;;;;;;2.80;1.77;;;22.00;46.20;;;;;;5073533;28;43451;-62
2022/04/26 12:37:26;;;;;;;2.25;1.77;;;21.90;46.10;;;;;;5067476;28;43617;-60
2022/04/26 12:39:58;;;;;;;2.40;1.77;;;21.90;46.30;;;;;;5074946;28;43786;-60
2022/04/26 12:42:28;;;;;;;1.90;1.73;;;21.90;46.20;;;;;;5075797;28;44014;-61
2022/04/26 12:45:00;;;;;;;1.98;1.77;;;21.90;46.30;;;;;;5064016;28;43466;-60
2022/04/26 12:50:33;;;;;;;2.05;1.80;;;21.80;46.40;;;;;;5078658;28;43816;-60
2022/04/26 12:53:06;;;;;;;1.90;1.80;;;21.80;46.40;;;;;;5066002;28;44111;-60
2022/04/26 12:55:43;;;;;;;3.15;1.70;;;21.80;46.40;;;;;;5066887;28;43528;-61
2022/04/26 12:58:12;;;;;;;2.67;2.00;;;21.80;46.40;;;;;;5078914;28;43523;-61
2022/04/26 13:00:46;;;;;;;1.80;1.70;;;21.80;46.40;;;;;;5070423;28;45049;-62
2022/04/26 13:03:17;;;;;;;2.10;1.90;;;21.80;46.40;;;;;;5068662;28;44087;-61
2022/04/26 13:05:48;;;;;;;2.30;2.00;;;21.80;46.40;;;;;;5066190;28;43450;-60
2022/04/26 13:08:17;;;;;;;1.67;1.58;;;21.80;46.40;;;;;;5081231;28;43522;-61
2022/04/26 13:10:45;;;;;;;2.92;1.75;;;21.80;46.50;;;;;;5076084;27;44439;-60
2022/04/26 13:13:14;;;;;;;2.22;1.60;;;21.80;46.50;;;;;;5068323;28;43537;-60
2022/04/26 13:15:42;;;;;;;1.75;1.40;;;21.80;46.60;;;;;;5079656;28;43432;-60
2022/04/26 13:18:10;;;;;;;1.70;1.60;;;21.80;46.50;;;;;;5076675;28;43448;-61
2022/04/26 13:20:38;;;;;;;2.05;1.75;;;21.80;46.50;;;;;;5072787;28;44047;-62
2022/04/26 13:23:15;;;;;;;2.50;1.63;;;21.70;46.50;;;;;;5065426;28;43497;-60
2022/04/26 13:25:43;;;;;;;2.30;1.85;;;21.70;46.50;;;;;;5077019;28;43990;-61
2022/04/26 13:28:11;;;;;;;1.83;1.63;;;21.70;46.50;;;;;;5061006;28;43565;-61
2022/04/26 13:30:38;;;;;;;1.80;1.67;;;21.80;46.50;;;;;;5067883;28;45060;-61
2022/04/26 13:33:06;;;;;;;1.67;1.58;;;21.80;46.50;;;;;;5080262;28;43974;-61
2022/04/26 13:35:35;;;;;;;2.05;1.50;;;21.80;46.40;;;;;;5080478;27;43404;-61
2022/04/26 13:38:06;;;;;;;1.92;1.73;;;21.80;46.50;;;;;;5078227;28;43512;-61
2022/04/26 13:40:34;;;;;;;1.60;1.50;;;21.80;46.50;;;;;;5069653;28;45012;-61
2022/04/26 13:43:01;;;;;;;2.22;1.70;;;21.80;46.40;;;;;;5080075;28;44215;-60
2022/04/26 13:45:29;;;;;;;1.70;1.60;;;21.80;46.40;;;;;;5078123;27;43613;-60
2022/04/26 13:47:56;;;;;;;1.67;1.58;;;21.80;46.40;;;;;;5076791;28;43596;-61
2022/04/26 13:50:24;;;;;;;3.22;1.80;;;21.80;46.30;;;;;;5068732;28;45000;-60
2022/04/26 13:52:52;;;;;;;3.03;1.45;;;21.90;47.00;;;;;;5078463;28;43486;-61
2022/04/26 13:55:19;;;;;;;1.77;1.67;;;21.90;46.30;;;;;;5079450;28;44080;-61
2022/04/26 13:57:47;;;;;;;1.83;1.60;;;21.90;46.20;;;;;;5076426;28;43519;-61
2022/04/26 14:00:16;;;;;;;1.73;1.63;;;22.00;46.20;;;;;;5068647;28;44103;-61
2022/04/26 14:02:46;;;;;;;2.20;1.70;;;22.00;46.20;;;;;;5070139;28;44104;-60
2022/04/26 14:05:15;;;;;;;;;;;22.00;46.20;;;;;;5080086;27;43508;-61
2022/04/26 14:07:46;;;;;;;1.85;1.70;;;21.90;46.10;;;;;;5073542;27;43577;-61
2022/04/26 14:10:15;;;;;;;2.92;1.80;;;21.90;46.20;;;;;;5079095;28;44086;-61
2022/04/26 14:12:43;;;;;;;2.65;1.83;;;22.00;46.30;;;;;;5081645;28;43482;-61
2022/04/26 14:23:54;;;;;;;1.85;1.48;;;22.10;46.10;;;;;;5028387;28;43654;-61
2022/04/26 14:26:21;;;;;;;2.10;1.90;;;22.10;46.10;;;;;;5019462;28;43603;-61
2022/04/26 14:28:49;;;;;;;4.00;1.60;;;22.20;46.20;;;;;;5036259;28;44108;-61
2022/04/26 14:31:16;;;;;;;2.55;1.92;;;22.20;46.10;;;;;;5073800;28;45113;-62
2022/04/26 14:33:43;;;;;;;2.75;1.65;;;22.20;46.10;;;;;;5075968;28;43474;-61
2022/04/26 14:36:11;;;;;;;1.80;1.65;;;22.20;46.00;;;;;;5093711;27;43496;-60
2022/04/26 14:38:38;;;;;;;1.73;1.63;;;22.30;47.00;;;;;;5081400;27;44142;-61
2022/04/26 14:41:08;;;;;;;2.20;2.00;;;22.30;47.00;;;;;;5079613;27;44825;-61
2022/04/26 14:43:39;;;;;;;1.70;1.42;;;22.30;46.90;;;;;;5072499;27;43482;-61
2022/04/26 14:46:07;;;;;;;1.83;1.60;;;22.40;46.90;;;;;;5070831;28;43496;-61
2022/04/26 14:48:36;;;;;;;1.55;1.45;;;22.40;46.80;;;;;;5076586;28;43548;-61
2022/04/26 14:51:05;;;;;;;1.92;1.48;;;22.40;46.70;;;;;;5080660;27;43945;-60
2022/04/26 14:53:33;;;;;;;1.63;1.52;;;22.50;46.70;;;;;;5067357;28;43528;-61
2022/04/26 14:56:05;;;;;;;1.83;1.40;;;22.50;46.70;;;;;;5069265;28;43444;-61
2022/04/26 14:58:53;;;;;;;2.13;1.67;;;22.50;46.70;;;;;;5097539;27;43519;-61
2022/04/26 15:01:36;;;;;;;1.70;1.60;;;22.50;46.60;;;;;;5071185;28;43763;-62
2022/04/26 15:04:05;;;;;;;2.20;1.50;;;22.50;46.50;;;;;;5071904;28;43654;-62
2022/04/26 15:06:39;;;;;;;2.47;1.70;;;22.50;46.40;;;;;;5065563;28;43992;-61
2022/04/26 15:17:49;;;;;;;1.65;1.50;;;22.60;46.00;;;;;;5078448;27;43478;-62
2022/04/26 15:20:25;;;;;;;3.30;1.85;;;22.60;45.90;;;;;;5072329;28;43425;-60
2022/04/26 15:22:59;;;;;;;2.38;1.63;;;22.60;45.90;;;;;;5067834;28;43998;-60
2022/04/26 15:25:35;;;;;;;1.85;1.60;;;22.60;45.90;;;;;;5078136;27;43585;-62
2022/04/26 15:28:03;;;;;;;2.58;1.60;;;22.60;45.80;;;;;;5079177;28;43465;-61
2022/04/26 15:30:30;;;;;;;1.80;1.70;;;22.60;45.80;;;;;;5072439;28;43408;-61
2022/04/26 15:32:57;;;;;;;1.58;1.48;;;22.60;45.80;;;;;;5067841;28;44952;-60
2022/04/26 15:35:25;;;;;;;1.77;1.42;;;22.70;45.80;;;;;;5080303;28;44293;-61
2022/04/26 15:37:52;;;;;;;1.65;1.35;;;22.70;45.80;;;;;;5078542;28;43452;-61
2022/04/26 15:40:20;;;;;;;2.33;1.38;;;22.70;45.80;;;;;;5070542;28;43652;-60
2022/04/26 15:42:47;;;;;;;1.98;1.48;;;22.70;45.80;;;;;;5078799;28;44002;-62
2022/04/26 15:45:14;;;;;;;1.58;1.48;;;22.60;45.80;;;;;;5077855;27;43904;-63
2022/04/26 15:47:42;;;;;;;2.22;1.73;;;22.60;45.70;;;;;;5077134;28;43493;-61
2022/04/26 15:50:09;;;;;;;2.53;1.50;;;22.70;45.80;;;;;;5068681;28;43576;-61
2022/04/26 15:52:38;;;;;;;2.15;1.77;;;22.60;45.90;;;;;;5078175;28;45009;-60
2022/04/26 15:55:06;;;;;;;1.60;1.50;;;22.70;45.80;;;;;;5079626;27;43498;-62
2022/04/26 15:57:33;;;;;;;1.52;1.42;;;22.70;45.80;;;;;;5091795;27;43491;-61
2022/04/26 16:00:01;;;;;;;4.88;1.70;;;22.70;45.80;;;;;;5067736;28;43645;-61
2022/04/26 16:02:34;;;;;;;2.38;1.60;;;22.70;45.80;;;;;;5068866;28;44686;-61
2022/04/26 16:05:02;;;;;;;1.92;1.55;;;22.70;45.80;;;;;;5073105;28;43731;-61
2022/04/26 16:07:33;;;;;;;2.80;1.45;;;22.70;46.00;;;;;;5072988;28;43379;-62
2022/04/26 16:21:05;;;;;;;2.30;1.80;;;22.60;46.20;;;;;;5073729;28;43601;-61
2022/04/26 16:23:32;;;;;;;1.85;1.60;;;22.60;46.90;;;;;;5080096;27;45187;-61
2022/04/26 16:26:02;;;;;;;1.75;1.60;;;22.60;46.50;;;;;;5065841;28;44276;-61
2022/04/26 16:28:34;;;;;;;2.30;1.55;;;22.50;46.50;;;;;;5068898;28;43435;-62
2022/04/26 16:31:03;;;;;;;3.28;1.60;;;22.50;46.20;;;;;;5063474;28;43453;-62
2022/04/26 16:33:31;;;;;;;1.77;1.42;;;22.50;45.90;;;;;;5077359;28;44967;-61
2022/04/26 16:35:59;;;;;;;1.85;1.35;;;22.50;46.90;;;;;;5068724;28;44403;-61
2022/04/26 16:38:26;;;;;;;1.92;1.52;;;22.50;45.90;;;;;;5067152;28;43449;-61
2022/04/26 16:40:55;;;;;;;1.98;1.33;;;22.40;45.60;;;;;;5078197;27;43506;-61
2022/04/26 16:43:22;;;;;;;1.50;1.40;;;22.40;46.00;;;;;;5075140;28;44074;-61
2022/04/26 16:45:50;;;;;;;2.55;1.45;;;22.40;46.50;;;;;;5065564;28;44176;-62
2022/04/26 16:48:24;;;;;;;1.77;1.40;;;22.40;46.50;;;;;;5072833;28;43359;-61
2022/04/26 16:50:52;;;;;;;1.60;1.50;;;22.30;46.60;;;;;;5068293;28;43644;-61
2022/04/26 16:53:29;;;;;;;2.28;1.58;;;22.30;46.70;;;;;;5070301;28;43699;-61
2022/04/26 16:55:57;;;;;;;2.00;1.50;;;22.30;46.30;;;;;;5067821;28;43625;-61
2022/04/26 16:58:34;;;;;;;1.80;1.70;;;22.20;46.80;;;;;;5081700;28;43943;-61
2022/04/26 17:01:06;;;;;;;2.70;1.80;;;22.20;46.70;;;;;;5060702;28;43428;-61
2022/04/26 17:03:34;;;;;;;1.60;1.50;;;22.30;46.60;;;;;;5067054;28;44073;-61
2022/04/26 17:06:06;;;;;;;1.98;1.60;;;22.30;46.60;;;;;;5065195;28;43498;-61
2022/04/26 17:08:33;;;;;;;1.67;1.50;;;22.20;46.70;;;;;;5084781;27;43917;-61
2022/04/26 17:13:46;;;;;;;1.80;1.40;;;22.20;46.40;;;;;;5071896;28;45036;-61
2022/04/26 17:16:14;;;;;;;1.60;1.50;;;22.20;46.30;;;;;;5063723;28;43780;-61
2022/04/26 17:18:43;;;;;;;2.67;1.60;;;22.20;46.50;;;;;;5068879;28;43461;-61
2022/04/26 17:21:10;;;;;;;2.10;1.65;;;22.10;46.60;;;;;;5072369;28;43620;-62
2022/04/26 17:23:39;;;;;;;1.80;1.70;;;22.10;46.30;;;;;;5074544;28;44698;-61
2022/04/26 17:26:06;;;;;;;1.50;1.40;;;22.10;46.50;;;;;;5060467;28;43495;-61
2022/04/26 17:28:34;;;;;;;2.20;1.83;;;22.10;47.00;;;;;;5073809;28;43548;-61
2022/04/26 17:31:02;;;;;;;1.98;1.58;;;22.10;47.20;;;;;;5073386;28;43503;-61
2022/04/26 17:33:29;;;;;;;2.30;1.50;;;22.10;47.40;;;;;;5070670;28;44701;-61